Time;durP1;ratioP1;P1;durP2;ratioP2;P2;SDS_P1;SDS_P2;PMS_P1;PMS_P2;Temp;Humidity;BMP_temperature;BMP_pressure;BME280_temperature;BME280_humidity;BME280_pressure;Samples;Min_cycle;Max_cycle;Signal;HPM_P1;HPM_P2
2020/12/27 00:02:48;;;;;;;7.20;3.55;;;5.10;54.70;;;;;;6249630;28;20056;-76
2020/12/27 00:05:51;;;;;;;7.07;3.10;;;5.10;54.80;;;;;;6253070;28;20494;-75
2020/12/27 00:08:51;;;;;;;7.38;3.55;;;5.10;54.80;;;;;;6245597;28;20041;-75
2020/12/27 00:11:53;;;;;;;8.70;3.20;;;5.20;54.80;;;;;;6234256;28;20485;-76
2020/12/27 00:14:54;;;;;;;9.68;4.18;;;5.10;54.80;;;;;;6227781;28;20124;-75
2020/12/27 00:17:55;;;;;;;8.80;3.83;;;5.10;54.90;;;;;;6241327;28;20033;-76
2020/12/27 00:20:56;;;;;;;6.57;3.42;;;5.00;55.00;;;;;;6248672;28;20037;-75
2020/12/27 00:23:57;;;;;;;6.57;2.70;;;5.00;55.10;;;;;;6254805;28;20042;-76
2020/12/27 00:27:23;;;;;;;7.32;3.75;;;5.00;55.30;;;;;;6244229;28;20136;-75
2020/12/27 00:30:24;;;;;;;4.93;2.85;;;5.00;55.30;;;;;;6223809;28;20087;-75
2020/12/27 00:33:25;;;;;;;12.60;4.22;;;5.00;55.90;;;;;;6197561;28;20068;-75
2020/12/27 00:36:26;;;;;;;6.88;3.40;;;5.00;55.40;;;;;;6192310;28;23567;-75
2020/12/27 00:39:27;;;;;;;8.80;4.43;;;5.00;55.40;;;;;;6210947;28;20041;-75
2020/12/27 00:42:28;;;;;;;9.23;4.35;;;5.00;55.40;;;;;;6226654;28;20033;-74
2020/12/27 00:45:29;;;;;;;12.82;4.47;;;5.00;55.50;;;;;;6220016;28;20036;-74
2020/12/27 00:48:30;;;;;;;14.98;6.13;;;5.10;55.60;;;;;;6193742;28;20585;-75
2020/12/27 00:51:31;;;;;;;15.30;5.43;;;5.10;55.70;;;;;;6195544;28;20048;-74
2020/12/27 00:54:32;;;;;;;12.20;6.03;;;5.10;55.80;;;;;;6215614;28;20049;-75
2020/12/27 00:57:33;;;;;;;18.95;6.60;;;5.10;55.80;;;;;;6220770;28;20108;-76
2020/12/27 01:00:34;;;;;;;11.07;5.63;;;5.10;55.90;;;;;;6230002;28;20075;-76
2020/12/27 01:03:35;;;;;;;13.98;6.55;;;5.10;56.00;;;;;;6244303;28;20119;-76
2020/12/27 01:06:52;;;;;;;15.38;5.72;;;5.10;56.10;;;;;;6252908;28;20207;-75
2020/12/27 01:09:53;;;;;;;15.10;6.47;;;5.00;56.20;;;;;;6255433;28;20506;-75
2020/12/27 01:12:54;;;;;;;15.73;6.65;;;5.00;56.30;;;;;;6253669;28;20036;-74
2020/12/27 01:15:56;;;;;;;14.77;6.07;;;5.00;56.40;;;;;;6250687;28;20048;-76
2020/12/27 01:19:00;;;;;;;14.68;5.65;;;5.00;56.40;;;;;;6242862;28;20029;-75
2020/12/27 01:22:09;;;;;;;13.15;5.57;;;5.10;56.50;;;;;;6236833;28;20033;-74
2020/12/27 01:25:30;;;;;;;10.55;4.50;;;4.90;56.40;;;;;;6251636;28;20037;-75
2020/12/27 01:28:32;;;;;;;13.27;5.00;;;4.90;56.50;;;;;;6227828;28;20040;-75
2020/12/27 01:31:40;;;;;;;12.90;5.83;;;4.90;56.50;;;;;;6244455;28;20043;-79
2020/12/27 01:34:53;;;;;;;11.85;5.65;;;4.90;56.60;;;;;;6226768;28;20575;-75
2020/12/27 01:37:56;;;;;;;19.40;5.78;;;5.00;56.70;;;;;;6228908;28;20033;-75
2020/12/27 01:41:02;;;;;;;19.80;6.32;;;5.00;56.70;;;;;;6234120;28;20060;-75
2020/12/27 01:44:11;;;;;;;16.13;6.68;;;5.00;56.70;;;;;;6226162;28;20049;-74
2020/12/27 01:47:20;;;;;;;11.98;5.68;;;5.00;56.80;;;;;;6243704;28;20172;-74
2020/12/27 01:50:22;;;;;;;13.48;5.93;;;4.90;56.70;;;;;;6242553;28;20042;-74
2020/12/27 01:53:24;;;;;;;13.63;6.80;;;4.90;56.80;;;;;;6217131;28;745366;-75
2020/12/27 01:56:42;;;;;;;14.50;6.30;;;4.90;56.80;;;;;;6241489;28;20033;-75
2020/12/27 01:59:47;;;;;;;11.30;5.38;;;4.90;56.80;;;;;;6252342;28;20040;-75
2020/12/27 02:03:10;;;;;;;9.10;4.30;;;4.90;56.80;;;;;;6247941;28;20025;-76
2020/12/27 02:06:10;;;;;;;13.52;4.35;;;4.90;56.60;;;;;;6249438;28;20025;-75
2020/12/27 02:09:12;;;;;;;9.43;4.45;;;4.90;56.30;;;;;;6255115;28;20038;-75
2020/12/27 02:12:25;;;;;;;11.77;4.13;;;4.90;56.20;;;;;;6250823;28;20037;-75
2020/12/27 02:15:26;;;;;;;10.10;5.05;;;4.90;56.00;;;;;;6259527;28;20469;-78
2020/12/27 02:18:47;;;;;;;8.20;3.78;;;4.90;55.90;;;;;;6264014;28;20038;-76
2020/12/27 02:21:48;;;;;;;8.25;3.88;;;4.80;55.80;;;;;;6261269;28;20033;-75
2020/12/27 02:25:09;;;;;;;9.55;4.38;;;4.80;55.80;;;;;;6253702;28;20088;-75
2020/12/27 02:28:11;;;;;;;17.58;3.75;;;4.90;55.80;;;;;;6257074;28;20052;-75
2020/12/27 02:31:12;;;;;;;9.88;3.90;;;4.90;56.30;;;;;;6253820;28;20041;-74
2020/12/27 02:34:42;;;;;;;10.52;3.78;;;4.90;55.60;;;;;;6209230;28;20030;-75
2020/12/27 02:37:46;;;;;;;5.45;2.95;;;5.00;55.40;;;;;;6202495;28;20060;-75
2020/12/27 02:40:48;;;;;;;6.43;2.80;;;5.00;55.40;;;;;;6181180;28;20052;-76
2020/12/27 02:43:57;;;;;;;8.55;3.33;;;4.90;55.00;;;;;;6214922;28;20067;-75
2020/12/27 02:46:58;;;;;;;5.68;3.38;;;4.90;54.80;;;;;;6216621;28;20045;-75
2020/12/27 02:50:18;;;;;;;10.48;3.60;;;4.90;54.70;;;;;;6216454;28;20479;-75
2020/12/27 02:53:20;;;;;;;9.27;4.53;;;4.80;54.60;;;;;;6213344;28;20563;-75
2020/12/27 02:56:30;;;;;;;11.43;5.28;;;4.80;54.70;;;;;;6215339;28;20112;-74
2020/12/27 02:59:55;;;;;;;9.65;5.20;;;4.80;55.00;;;;;;6214866;28;20033;-75
2020/12/27 03:03:21;;;;;;;10.88;4.78;;;4.90;55.30;;;;;;6215498;28;20042;-75
2020/12/27 03:06:49;;;;;;;17.95;5.55;;;4.80;55.60;;;;;;6201302;28;20030;-75
2020/12/27 03:10:15;;;;;;;13.80;4.55;;;4.80;55.80;;;;;;6229008;28;20033;-74
2020/12/27 03:13:41;;;;;;;15.98;5.10;;;4.70;56.00;;;;;;6246545;28;20022;-74
2020/12/27 03:17:09;;;;;;;10.85;4.85;;;4.70;56.30;;;;;;6250573;28;20030;-75
2020/12/27 03:20:34;;;;;;;9.77;5.00;;;4.60;56.50;;;;;;6232606;28;20022;-74
2020/12/27 03:24:00;;;;;;;11.82;4.68;;;4.70;56.60;;;;;;6248076;28;20049;-75
2020/12/27 03:27:27;;;;;;;12.45;5.40;;;4.60;56.60;;;;;;6252864;28;20045;-75
2020/12/27 03:35:17;;;;;;;10.68;5.15;;;4.50;56.90;;;;;;6245243;28;20053;-77
2020/12/27 03:38:44;;;;;;;12.40;4.72;;;4.50;57.20;;;;;;6230525;28;20462;-76
2020/12/27 03:42:09;;;;;;;10.10;4.70;;;4.40;57.20;;;;;;6245071;28;20037;-75
2020/12/27 03:45:36;;;;;;;17.70;5.72;;;4.40;57.20;;;;;;6232829;28;20033;-75
2020/12/27 03:49:03;;;;;;;14.15;6.00;;;4.40;57.20;;;;;;6232511;28;20033;-75
2020/12/27 15:09:48;;;;;;;8.40;2.00;;;7.50;47.80;;;;;;6234579;28;20041;-83
2020/12/27 15:12:51;;;;;;;3.22;2.25;;;7.50;47.50;;;;;;6264251;28;20079;-82
2020/12/27 15:15:52;;;;;;;4.43;2.00;;;7.70;47.50;;;;;;6256128;28;20120;-83
2020/12/27 15:18:53;;;;;;;3.53;1.83;;;7.60;47.40;;;;;;6273562;28;20043;-83
2020/12/27 15:21:54;;;;;;;4.45;2.03;;;7.70;47.40;;;;;;6253506;28;20064;-82
2020/12/27 15:24:56;;;;;;;4.22;2.63;;;7.70;47.30;;;;;;6264741;28;20048;-83
2020/12/27 15:28:01;;;;;;;4.88;1.95;;;7.80;47.20;;;;;;6252934;28;20039;-81
2020/12/27 15:35:24;;;;;;;4.97;2.60;;;7.90;46.70;;;;;;6254593;28;20037;-83
2020/12/27 15:38:25;;;;;;;5.15;2.15;;;7.80;46.60;;;;;;6249551;28;20371;-82
2020/12/27 15:41:28;;;;;;;5.00;1.98;;;7.80;46.70;;;;;;6259486;28;20040;-82
2020/12/27 15:44:32;;;;;;;7.13;2.47;;;7.80;46.60;;;;;;6263825;28;20366;-82
2020/12/27 15:47:36;;;;;;;4.20;2.03;;;7.80;46.80;;;;;;6270459;28;20114;-82
2020/12/27 15:50:37;;;;;;;4.10;1.73;;;7.80;46.80;;;;;;6246705;28;20048;-82
2020/12/27 15:53:38;;;;;;;10.50;2.30;;;7.80;46.50;;;;;;6253256;28;20447;-84
2020/12/27 15:56:42;;;;;;;5.45;2.42;;;7.80;46.50;;;;;;6272112;28;20040;-82
2020/12/27 15:59:43;;;;;;;4.90;1.98;;;8.00;46.70;;;;;;6267570;28;20035;-82
2020/12/27 16:02:45;;;;;;;3.90;2.15;;;7.90;46.70;;;;;;6244683;28;21374;-81
2020/12/27 16:05:46;;;;;;;3.88;1.92;;;8.00;46.50;;;;;;6275653;28;20040;-81
2020/12/27 16:08:50;;;;;;;7.65;2.13;;;8.20;46.30;;;;;;6241120;28;20041;-81
2020/12/27 16:11:51;;;;;;;3.13;1.38;;;8.30;46.00;;;;;;6263645;28;20044;-81
2020/12/27 16:14:52;;;;;;;1.58;1.10;;;8.50;45.50;;;;;;6266045;28;20480;-82
2020/12/27 16:17:53;;;;;;;1.60;1.00;;;8.70;44.70;;;;;;6264989;28;20037;-81
2020/12/27 16:20:54;;;;;;;3.00;1.25;;;9.00;44.10;;;;;;6239805;28;20037;-83
2020/12/27 16:23:55;;;;;;;2.40;1.50;;;9.30;44.10;;;;;;6252515;28;20459;-79
2020/12/27 16:26:57;;;;;;;2.88;1.17;;;9.40;43.90;;;;;;6256241;28;20044;-80
2020/12/27 16:29:58;;;;;;;2.47;0.95;;;9.60;43.30;;;;;;6269277;28;20447;-83
2020/12/27 16:32:59;;;;;;;1.40;1.10;;;9.80;43.10;;;;;;6271594;28;20036;-79
2020/12/27 16:36:03;;;;;;;2.50;1.13;;;10.00;43.00;;;;;;6270551;28;20092;-77
2020/12/27 16:39:05;;;;;;;5.05;0.88;;;10.20;42.80;;;;;;6249771;28;20410;-78
2020/12/27 16:42:05;;;;;;;1.45;0.60;;;10.40;42.60;;;;;;6235305;28;20043;-80
2020/12/27 16:45:06;;;;;;;0.82;0.55;;;10.60;41.70;;;;;;6251603;28;20029;-79
2020/12/27 16:48:09;;;;;;;2.30;0.82;;;10.80;42.00;;;;;;6259645;28;20347;-78
2020/12/27 16:51:10;;;;;;;3.35;0.80;;;11.00;41.70;;;;;;6257778;28;20126;-78
2020/12/27 16:54:12;;;;;;;3.60;0.28;;;11.20;41.50;;;;;;6260462;28;20055;-75
2020/12/27 16:57:13;;;;;;;4.22;0.50;;;11.30;40.20;;;;;;6232660;28;20143;-79
2020/12/27 17:00:14;;;;;;;0.77;0.52;;;11.50;39.50;;;;;;6250970;28;20066;-77
2020/12/27 17:03:15;;;;;;;1.00;0.75;;;11.60;38.00;;;;;;6238766;28;20116;-73
2020/12/27 17:06:18;;;;;;;0.60;0.30;;;11.80;37.60;;;;;;6262128;28;20033;-71
2020/12/27 17:09:20;;;;;;;7.18;2.38;;;11.90;36.90;;;;;;6255537;28;20121;-79
2020/12/27 17:12:35;;;;;;;;;;;;;;;;;;;;;
2020/12/27 17:15:36;;;;;;;0.82;0.63;;;12.10;37.50;;;;;;6260294;28;20032;-78
2020/12/27 17:18:38;;;;;;;1.00;0.73;;;12.20;37.60;;;;;;6258025;28;20467;-78
2020/12/27 17:21:39;;;;;;;0.13;0.13;;;12.30;36.90;;;;;;6248594;28;20045;-77
2020/12/27 17:24:40;;;;;;;2.78;0.98;;;12.30;35.90;;;;;;6228293;28;20087;-78
2020/12/27 17:27:41;;;;;;;1.02;0.60;;;12.30;36.00;;;;;;6257848;28;20339;-78
2020/12/27 17:30:49;;;;;;;2.10;0.75;;;12.30;36.60;;;;;;6227431;28;20030;-78
2020/12/27 17:34:00;;;;;;;2.40;1.05;;;12.30;36.00;;;;;;6238628;28;20034;-80
2020/12/27 17:37:21;;;;;;;0.10;0.10;;;12.30;36.20;;;;;;6238189;28;20127;-79
2020/12/27 17:40:28;;;;;;;2.72;0.63;;;12.30;35.40;;;;;;6230374;28;20467;-78
2020/12/27 17:43:33;;;;;;;0.73;0.68;;;12.30;35.00;;;;;;6210571;28;20041;-79
2020/12/27 17:46:54;;;;;;;4.70;1.10;;;12.30;35.20;;;;;;6214402;28;20474;-78
2020/12/27 17:49:58;;;;;;;1.00;0.60;;;12.30;35.30;;;;;;6215000;28;20034;-78
2020/12/27 17:52:59;;;;;;;1.60;1.02;;;12.30;35.70;;;;;;6218673;28;20403;-78
2020/12/27 17:56:00;;;;;;;0.40;0.40;;;12.40;35.30;;;;;;6232558;28;20029;-77
2020/12/27 17:59:09;;;;;;;1.05;0.55;;;12.40;34.70;;;;;;6220463;28;20040;-79
2020/12/27 18:02:10;;;;;;;0.20;0.20;;;12.30;34.10;;;;;;6222116;28;20085;-78
2020/12/27 18:05:12;;;;;;;1.55;0.60;;;12.30;34.30;;;;;;6208833;28;20066;-78
2020/12/27 18:08:20;;;;;;;1.50;0.90;;;12.40;33.90;;;;;;6240263;28;20045;-78
2020/12/27 18:11:25;;;;;;;0.50;0.43;;;12.30;33.40;;;;;;6225859;28;20033;-77
2020/12/27 18:14:26;;;;;;;1.88;0.30;;;12.40;33.30;;;;;;6224254;28;20034;-79
2020/12/27 18:17:27;;;;;;;1.33;0.70;;;12.40;33.00;;;;;;6239063;28;20040;-78
2020/12/27 18:20:29;;;;;;;6.10;2.35;;;12.40;32.60;;;;;;6239253;28;20121;-78
2020/12/27 18:23:30;;;;;;;4.22;0.93;;;12.50;33.40;;;;;;6246613;28;20032;-78
2020/12/27 18:26:30;;;;;;;5.50;2.50;;;12.50;33.10;;;;;;6260109;28;20037;-78
2020/12/27 18:29:32;;;;;;;1.05;0.82;;;12.50;33.20;;;;;;6259576;28;20071;-78
2020/12/27 18:32:33;;;;;;;0.40;0.32;;;12.50;33.10;;;;;;6246466;28;20476;-77
2020/12/27 18:35:33;;;;;;;1.30;0.52;;;12.50;32.70;;;;;;6258368;28;20071;-76
2020/12/27 18:38:36;;;;;;;7.78;0.73;;;12.60;32.70;;;;;;6258858;28;20116;-75
2020/12/27 18:41:37;;;;;;;1.15;0.60;;;12.60;32.90;;;;;;6259396;28;20031;-78
2020/12/27 18:44:38;;;;;;;1.05;0.40;;;12.60;32.70;;;;;;6249178;28;20056;-77
2020/12/27 18:47:39;;;;;;;0.40;0.40;;;12.60;32.40;;;;;;6255517;28;20044;-77
2020/12/27 18:50:40;;;;;;;0.57;0.40;;;12.60;31.80;;;;;;6254918;28;20069;-78
2020/12/27 18:53:41;;;;;;;1.13;0.40;;;12.60;31.00;;;;;;6249355;28;20055;-77
2020/12/27 18:56:46;;;;;;;2.15;0.35;;;12.60;31.00;;;;;;6254767;28;20033;-77
2020/12/27 18:59:47;;;;;;;0.20;0.20;;;12.60;31.20;;;;;;6240389;28;20359;-77
2020/12/27 19:02:48;;;;;;;0.77;0.60;;;12.60;31.20;;;;;;6264433;28;20454;-79
2020/12/27 19:05:49;;;;;;;3.38;1.20;;;12.60;30.40;;;;;;6264033;28;20038;-76
2020/12/27 19:08:50;;;;;;;0.40;0.40;;;12.60;30.00;;;;;;6260201;28;20119;-77
2020/12/27 19:11:51;;;;;;;0.63;0.40;;;12.60;29.70;;;;;;6260304;28;20059;-77
2020/12/27 19:14:52;;;;;;;0.40;0.32;;;12.60;29.40;;;;;;6257039;28;20475;-76
2020/12/27 19:17:53;;;;;;;1.17;0.70;;;12.60;29.40;;;;;;6257986;28;20128;-77
2020/12/27 19:20:55;;;;;;;0.43;0.32;;;12.60;28.70;;;;;;6256555;28;20041;-76
2020/12/27 19:23:56;;;;;;;0.47;0.40;;;12.60;29.00;;;;;;6245588;28;20035;-78
2020/12/27 19:26:57;;;;;;;0.73;0.30;;;12.70;29.30;;;;;;6261904;28;20478;-76
2020/12/27 19:29:58;;;;;;;0.20;0.20;;;12.70;29.10;;;;;;6245124;28;20078;-76
2020/12/27 19:32:58;;;;;;;0.38;0.30;;;12.70;29.00;;;;;;6270454;28;20053;-78
2020/12/27 19:36:00;;;;;;;1.27;0.65;;;12.70;28.80;;;;;;6262267;28;20053;-78
2020/12/27 19:39:04;;;;;;;1.25;0.75;;;12.80;28.90;;;;;;6238238;28;20037;-80
2020/12/27 19:42:05;;;;;;;0.30;0.20;;;12.80;29.00;;;;;;6262270;28;20040;-79
2020/12/27 19:45:06;;;;;;;0.43;0.40;;;12.80;28.90;;;;;;6262102;28;20087;-79
2020/12/27 19:48:07;;;;;;;0.98;0.50;;;12.90;29.10;;;;;;6237780;28;20042;-77
2020/12/27 19:51:08;;;;;;;7.13;0.90;;;13.00;28.90;;;;;;6247222;28;20488;-83
2020/12/27 19:54:09;;;;;;;0.70;0.57;;;13.00;28.70;;;;;;6257346;28;20033;-80
2020/12/27 19:57:10;;;;;;;0.60;0.47;;;13.10;28.00;;;;;;6261557;28;20033;-79
2020/12/27 20:00:11;;;;;;;2.33;0.60;;;13.10;28.00;;;;;;6262463;28;20117;-79
2020/12/27 20:03:12;;;;;;;5.63;0.32;;;13.20;28.30;;;;;;6241328;28;20033;-73
2020/12/27 20:06:18;;;;;;;0.38;0.30;;;13.30;28.00;;;;;;6256175;28;20040;-78
2020/12/27 20:09:19;;;;;;;1.38;0.50;;;13.30;28.20;;;;;;6258960;28;20351;-77
2020/12/27 20:12:21;;;;;;;0.13;0.13;;;13.40;28.20;;;;;;6258952;28;20076;-77
2020/12/27 20:15:22;;;;;;;1.67;0.50;;;13.40;27.80;;;;;;6259762;28;20080;-74
2020/12/27 20:18:23;;;;;;;0.57;0.40;;;13.40;27.60;;;;;;6261049;28;20383;-79
2020/12/27 20:21:24;;;;;;;0.45;0.30;;;13.40;27.40;;;;;;6264515;28;20048;-80
2020/12/27 20:24:25;;;;;;;0.32;0.17;;;13.50;27.50;;;;;;6259045;28;20033;-79
2020/12/27 20:27:26;;;;;;;0.70;0.50;;;13.50;27.50;;;;;;6265428;28;20032;-78
2020/12/27 20:30:26;;;;;;;1.80;0.50;;;13.50;27.30;;;;;;6272887;28;20637;-78
2020/12/27 20:33:27;;;;;;;1.52;0.50;;;13.60;27.30;;;;;;6248379;28;20123;-80
2020/12/27 20:36:28;;;;;;;1.92;0.75;;;13.60;27.10;;;;;;6272963;28;20041;-80
2020/12/27 20:39:29;;;;;;;0.40;0.40;;;13.60;27.40;;;;;;6279860;28;20104;-79
2020/12/27 20:42:31;;;;;;;0.47;0.40;;;13.60;27.20;;;;;;6263527;28;20048;-77
2020/12/27 20:45:33;;;;;;;4.97;1.33;;;13.60;27.30;;;;;;6249971;28;20094;-80
2020/12/27 20:48:34;;;;;;;0.70;0.32;;;13.60;26.90;;;;;;6263030;28;20098;-81
2020/12/27 20:51:35;;;;;;;1.70;0.20;;;13.60;26.50;;;;;;6262252;28;20091;-81
2020/12/27 20:54:36;;;;;;;0.25;0.25;;;13.60;26.20;;;;;;6246247;28;20025;-81
2020/12/27 20:57:37;;;;;;;0.43;0.30;;;13.60;26.00;;;;;;6257277;28;20045;-80
2020/12/27 21:00:37;;;;;;;1.60;0.60;;;13.60;26.50;;;;;;6257171;28;20037;-80
2020/12/27 21:03:39;;;;;;;0.63;0.30;;;13.60;26.30;;;;;;6259541;28;20033;-81
2020/12/27 21:06:40;;;;;;;1.08;0.40;;;13.70;26.60;;;;;;6245689;28;20360;-79
2020/12/27 21:09:41;;;;;;;0.20;0.20;;;13.70;26.70;;;;;;6262291;28;20111;-79
2020/12/27 21:12:42;;;;;;;3.03;0.68;;;13.70;26.80;;;;;;6255239;28;20064;-80
2020/12/27 21:15:44;;;;;;;2.28;0.60;;;13.70;26.90;;;;;;6269052;28;20156;-80
2020/12/27 21:18:44;;;;;;;0.80;0.50;;;13.80;27.20;;;;;;6257435;28;20147;-80
2020/12/27 21:21:47;;;;;;;2.92;0.30;;;13.80;27.60;;;;;;6258643;28;20127;-80
2020/12/27 21:24:48;;;;;;;0.63;0.30;;;13.80;27.10;;;;;;6238815;28;20053;-80
2020/12/27 21:27:49;;;;;;;1.63;0.40;;;13.80;27.30;;;;;;6256289;28;20382;-81
2020/12/27 21:30:50;;;;;;;4.55;2.28;;;13.90;27.60;;;;;;6258593;28;20076;-80
2020/12/27 21:33:51;;;;;;;0.35;0.28;;;13.90;28.00;;;;;;6259142;28;20065;-79
2020/12/27 21:36:54;;;;;;;0.10;0.10;;;13.90;28.20;;;;;;6264487;28;20124;-79
2020/12/27 21:39:56;;;;;;;0.30;0.30;;;13.90;28.40;;;;;;6265436;28;20472;-79
2020/12/27 21:42:57;;;;;;;0.10;0.10;;;13.90;28.60;;;;;;6259736;28;21525;-80
2020/12/27 21:45:57;;;;;;;0.50;0.32;;;13.90;28.80;;;;;;6261663;28;20033;-81
2020/12/27 21:49:11;;;;;;;1.00;0.40;;;13.90;29.00;;;;;;6265779;28;20122;-80
2020/12/27 21:52:12;;;;;;;1.35;0.38;;;13.90;29.20;;;;;;6266570;28;20085;-81
2020/12/27 21:55:13;;;;;;;2.53;0.80;;;13.90;29.40;;;;;;6261438;28;20044;-80
2020/12/27 21:58:14;;;;;;;0.45;0.30;;;14.00;29.60;;;;;;6247416;28;20466;-80
2020/12/27 22:01:14;;;;;;;1.85;0.30;;;13.90;29.80;;;;;;6245985;28;20025;-79
2020/12/27 22:04:15;;;;;;;0.50;0.40;;;13.90;30.00;;;;;;6260631;28;20030;-80
2020/12/27 22:07:17;;;;;;;1.40;0.50;;;13.90;30.40;;;;;;6256396;28;20162;-80
2020/12/27 22:10:18;;;;;;;0.43;0.20;;;13.90;30.80;;;;;;6242638;28;20046;-80
2020/12/27 22:13:19;;;;;;;0.50;0.20;;;13.80;31.20;;;;;;6261046;28;20029;-80
2020/12/27 22:16:23;;;;;;;2.97;0.30;;;13.80;31.50;;;;;;6260467;28;20099;-80
2020/12/27 22:19:24;;;;;;;0.22;0.20;;;13.80;32.10;;;;;;6258082;28;20091;-80
2020/12/27 22:22:25;;;;;;;1.35;0.52;;;13.70;32.90;;;;;;6259988;28;20030;-80
2020/12/27 22:25:26;;;;;;;1.63;0.70;;;13.70;33.20;;;;;;6260232;28;20040;-79
2020/12/27 22:28:27;;;;;;;1.60;0.40;;;13.70;33.50;;;;;;6263068;28;20113;-81
2020/12/27 22:31:28;;;;;;;0.13;0.13;;;13.60;33.70;;;;;;6264609;28;20033;-81
2020/12/27 22:34:29;;;;;;;0.52;0.40;;;13.60;34.20;;;;;;6263557;28;20532;-80
2020/12/27 22:37:35;;;;;;;1.15;0.57;;;13.50;34.50;;;;;;6250499;28;20071;-80
2020/12/27 22:40:36;;;;;;;3.88;0.70;;;13.50;34.80;;;;;;6265472;28;20112;-80
2020/12/27 22:43:40;;;;;;;0.55;0.30;;;13.50;35.30;;;;;;6265016;28;20045;-81
2020/12/27 22:46:41;;;;;;;1.75;0.20;;;13.40;35.50;;;;;;6260309;28;20040;-81
2020/12/27 22:49:43;;;;;;;0.30;0.22;;;13.40;36.00;;;;;;6262249;28;20128;-80
2020/12/27 22:52:43;;;;;;;1.25;0.40;;;13.40;36.20;;;;;;6242157;28;20107;-80
2020/12/27 22:55:44;;;;;;;0.10;0.10;;;13.30;36.50;;;;;;6251426;28;20051;-81
2020/12/27 22:58:45;;;;;;;5.18;0.65;;;13.30;37.30;;;;;;6266597;28;20041;-80
2020/12/27 23:01:48;;;;;;;0.20;0.20;;;13.30;37.80;;;;;;6263065;28;20032;-80
2020/12/27 23:04:49;;;;;;;1.35;0.40;;;13.30;38.00;;;;;;6265733;28;20037;-80
2020/12/27 23:07:50;;;;;;;0.13;0.10;;;13.30;38.30;;;;;;6244680;28;20048;-80
2020/12/27 23:10:52;;;;;;;0.60;0.30;;;13.30;38.70;;;;;;6262261;28;20052;-80
2020/12/27 23:13:53;;;;;;;2.08;0.50;;;13.30;39.20;;;;;;6264009;28;20026;-81
2020/12/27 23:16:54;;;;;;;1.77;0.63;;;13.20;39.50;;;;;;6259405;28;20136;-81
2020/12/27 23:19:55;;;;;;;0.40;0.32;;;13.20;39.90;;;;;;6268524;28;20473;-81
2020/12/27 23:22:57;;;;;;;1.10;0.20;;;13.20;40.00;;;;;;6260709;28;20090;-80
2020/12/27 23:25:58;;;;;;;1.27;0.20;;;13.20;40.20;;;;;;6243804;28;20478;-81
2020/12/27 23:28:59;;;;;;;0.25;0.20;;;13.20;40.40;;;;;;6246859;28;20030;-81
2020/12/27 23:32:00;;;;;;;0.68;0.38;;;13.20;40.60;;;;;;6254874;28;20455;-82
2020/12/27 23:35:02;;;;;;;1.77;0.28;;;13.20;40.70;;;;;;6259596;28;20038;-80
2020/12/27 23:38:04;;;;;;;1.10;0.30;;;13.20;41.10;;;;;;6264974;28;20041;-81
2020/12/27 23:41:05;;;;;;;0.52;0.30;;;13.10;41.50;;;;;;6260214;28;20033;-80
2020/12/27 23:44:08;;;;;;;0.45;0.40;;;13.10;41.70;;;;;;6261769;28;20029;-80
2020/12/27 23:47:11;;;;;;;0.35;0.15;;;13.10;42.10;;;;;;6263456;28;20417;-80
2020/12/27 23:50:13;;;;;;;0.28;0.20;;;13.10;42.20;;;;;;6262315;28;20034;-80
2020/12/27 23:53:14;;;;;;;0.20;0.10;;;13.20;42.60;;;;;;6262403;28;20046;-80
2020/12/27 23:56:15;;;;;;;0.30;0.20;;;13.10;43.40;;;;;;6236947;28;20053;-81
2020/12/27 23:59:16;;;;;;;0.13;0.10;;;13.10;43.60;;;;;;6261664;28;20036;-79
